Main page
METAR-TAF:

METAR-TAF

Airports :

Kuito Airport

Kuito, Angola

latitude: 12-24-15S, longitude: 16-56-55E, elevation: 1712 m

Current weather observation

The report was made 16 hours and 36 minutes ago, at 14:00 UTC
Wind 10 kt from the East/Southeast
Temperature 25°C
Humidity 83%
Pressure 1017 hPa
Visibility 10 km or more
Scattered clouds at a height of 2000 ft

METAR: FNKU 221400Z 12010KT 9999 SCT020 25/22 Q1017

Time: 07:36 (06:36 UTC)

Forecast

The report was made 7 hours and 51 minutes ago, at 22:45 UTC
Forecast valid from 23 at 00 UTC to 23 at 12 UTC
Wind 3 kt from variable directions
Visibility: 9000 m
Scattered clouds at a height of 1500 ft
Broken clouds at a height of 2500 ft
Temporary
from 23 at 08 UTC to 23 at 12 UTC
Wind 8 kt from the West
Scattered clouds at a height of 2300 ft

TAF: FNKU 222245Z 2300/2312 VRB03KT 9000 SCT015 BKN025 TEMPO 2308/2312 26008KT SCT023

Weather observations and forecasts of more than 4000 airports (METAR and TAF reports).

The available stations are represented by yellow and red dots on the map.

Hover mouse over dot to see the name of the station.

Then click to see weather observations and forecasts.

To change the map : click on the green buttons with a black cross to zoom in, on the green button with a dash to zoom out, or on the green arrows for adjacent maps.


METAR-TAF: